Time;durP1;ratioP1;P1;durP2;ratioP2;P2;SDS_P1;SDS_P2;PMS_P1;PMS_P2;Temp;Humidity;BMP_temperature;BMP_pressure;BME280_temperature;BME280_humidity;BME280_pressure;Samples;Min_cycle;Max_cycle;Signal;HPM_P1;HPM_P2
2023/07/08 00:00:54;;;;;;;8.70;4.93;;;21.20;66.50;;;;;;5000473;28;20101;-65
2023/07/08 00:03:20;;;;;;;10.88;5.55;;;21.10;66.50;;;;;;4999903;28;20022;-66
2023/07/08 00:05:55;;;;;;;10.45;5.82;;;21.10;66.70;;;;;;4999803;28;20418;-66
2023/07/08 00:08:22;;;;;;;9.82;5.75;;;21.00;66.90;;;;;;4998372;28;20341;-65
2023/07/08 00:10:48;;;;;;;10.77;4.90;;;20.90;67.10;;;;;;4999260;28;20038;-67
2023/07/08 00:13:13;;;;;;;8.85;4.72;;;20.90;67.20;;;;;;4998577;28;20436;-67
2023/07/08 00:15:40;;;;;;;6.95;4.40;;;20.80;67.10;;;;;;4998194;28;20049;-68
2023/07/08 00:18:12;;;;;;;7.93;4.63;;;20.90;67.20;;;;;;4999367;28;20045;-67
2023/07/08 00:20:47;;;;;;;8.23;4.75;;;20.80;67.20;;;;;;4999022;28;20061;-66
2023/07/08 00:23:13;;;;;;;8.35;4.00;;;20.90;67.30;;;;;;4999282;28;20015;-67
2023/07/08 00:25:39;;;;;;;7.40;4.38;;;20.80;67.50;;;;;;4999440;28;20033;-65
2023/07/08 00:28:10;;;;;;;7.97;4.50;;;20.80;67.50;;;;;;4999202;28;20022;-68
2023/07/08 00:30:36;;;;;;;8.85;4.32;;;20.80;67.60;;;;;;4999575;28;20039;-66
2023/07/08 00:33:02;;;;;;;7.85;4.47;;;20.80;67.70;;;;;;4998839;28;20029;-65
2023/07/08 00:35:37;;;;;;;6.90;4.18;;;20.80;67.70;;;;;;4998393;28;20057;-67
2023/07/08 00:38:17;;;;;;;8.10;4.68;;;20.80;67.80;;;;;;4998977;28;20018;-66
2023/07/08 00:40:59;;;;;;;8.73;4.72;;;20.80;67.80;;;;;;4998726;28;20030;-67
2023/07/08 00:43:48;;;;;;;9.23;4.85;;;20.70;67.90;;;;;;4999183;28;20113;-66
2023/07/08 00:46:32;;;;;;;9.35;5.18;;;20.70;68.20;;;;;;4998582;28;20050;-66
2023/07/08 00:49:06;;;;;;;11.18;5.75;;;20.60;68.50;;;;;;4998550;28;20030;-65
2023/07/08 00:51:39;;;;;;;7.80;4.70;;;20.60;69.00;;;;;;4998702;28;20038;-68
2023/07/08 00:54:12;;;;;;;8.10;4.85;;;20.50;69.50;;;;;;4998926;28;20026;-67
2023/07/08 00:57:00;;;;;;;11.65;4.35;;;20.40;69.30;;;;;;4997680;28;20042;-65
2023/07/08 00:59:47;;;;;;;8.27;4.57;;;20.40;69.30;;;;;;4998603;28;20027;-65
2023/07/08 01:02:18;;;;;;;7.72;4.47;;;20.40;69.40;;;;;;4998588;28;20035;-65
2023/07/08 01:05:00;;;;;;;8.00;4.50;;;20.40;69.10;;;;;;4998663;28;20049;-67
2023/07/08 01:07:27;;;;;;;7.82;4.70;;;20.30;69.30;;;;;;4998717;28;20433;-67
2023/07/08 01:10:04;;;;;;;10.57;4.70;;;20.40;69.30;;;;;;4998355;28;20044;-66
2023/07/08 01:12:45;;;;;;;7.47;4.00;;;20.30;69.40;;;;;;4998147;28;20081;-68
2023/07/08 01:15:14;;;;;;;8.18;4.50;;;20.30;69.60;;;;;;4998254;28;20045;-67
2023/07/08 01:17:43;;;;;;;7.50;4.32;;;20.20;69.60;;;;;;4997852;28;20018;-67
2023/07/08 01:20:14;;;;;;;8.23;4.45;;;20.20;69.60;;;;;;4997968;28;20026;-68
2023/07/08 01:22:42;;;;;;;7.43;4.30;;;20.20;69.70;;;;;;4997886;28;20026;-68
2023/07/08 01:25:10;;;;;;;8.98;4.65;;;20.20;69.80;;;;;;4997733;28;20026;-66
2023/07/08 01:27:40;;;;;;;8.75;4.80;;;20.20;69.80;;;;;;4998364;28;20089;-66
2023/07/08 01:30:07;;;;;;;7.35;4.90;;;20.20;69.90;;;;;;4998629;28;20397;-67
2023/07/08 01:32:37;;;;;;;8.95;4.80;;;20.20;70.00;;;;;;4997097;28;20061;-67
2023/07/08 01:35:09;;;;;;;8.73;4.97;;;20.20;70.00;;;;;;4996925;28;20089;-66
2023/07/08 01:37:42;;;;;;;8.48;4.78;;;20.10;70.00;;;;;;4998025;28;20105;-65
2023/07/08 01:40:15;;;;;;;;;;;20.10;70.10;;;;;;4998328;28;20042;-66
2023/07/08 01:42:41;;;;;;;8.60;4.55;;;20.10;70.80;;;;;;4997459;28;19917;-68
2023/07/08 01:45:16;;;;;;;7.30;4.32;;;20.10;70.10;;;;;;4997473;28;20022;-67
2023/07/08 01:47:45;;;;;;;7.43;4.40;;;20.10;70.10;;;;;;4998024;28;20483;-66
2023/07/08 01:50:11;;;;;;;7.57;4.57;;;20.10;70.20;;;;;;4997692;28;20026;-66
2023/07/08 01:52:38;;;;;;;7.20;4.13;;;20.10;70.40;;;;;;4997591;28;20026;-67
2023/07/08 01:55:05;;;;;;;8.07;4.88;;;20.00;70.50;;;;;;4997520;28;20037;-67
2023/07/08 01:57:31;;;;;;;7.47;4.50;;;20.00;70.50;;;;;;4997730;28;20037;-66
2023/07/08 01:59:57;;;;;;;9.40;4.90;;;20.00;70.70;;;;;;4997275;28;20015;-65
2023/07/08 02:02:24;;;;;;;9.25;5.07;;;19.90;70.90;;;;;;4997195;28;20356;-67
2023/07/08 02:04:50;;;;;;;8.43;4.50;;;19.90;70.90;;;;;;4997041;28;20033;-67
2023/07/08 02:07:16;;;;;;;7.75;5.07;;;19.90;71.00;;;;;;4996994;28;20033;-66
2023/07/08 02:09:41;;;;;;;8.23;4.93;;;19.80;71.00;;;;;;4997011;28;20026;-66
2023/07/08 02:12:08;;;;;;;7.53;4.88;;;19.80;71.10;;;;;;4997242;28;20030;-65
2023/07/08 02:14:34;;;;;;;8.32;5.18;;;19.80;71.20;;;;;;4997258;28;20034;-68
2023/07/08 02:16:59;;;;;;;7.47;4.70;;;19.80;71.40;;;;;;4997059;28;20032;-65
2023/07/08 02:19:27;;;;;;;9.70;4.85;;;19.80;71.40;;;;;;4996858;28;20129;-68
2023/07/08 02:21:53;;;;;;;8.98;5.38;;;19.80;71.30;;;;;;4997059;28;20026;-67
2023/07/08 02:24:19;;;;;;;8.85;5.07;;;19.70;71.40;;;;;;4996940;28;20049;-67
2023/07/08 02:26:47;;;;;;;9.10;5.32;;;19.70;71.50;;;;;;4997204;28;20026;-65
2023/07/08 02:29:12;;;;;;;12.65;5.10;;;19.70;71.60;;;;;;4996953;28;20030;-68
2023/07/08 02:31:38;;;;;;;8.20;5.10;;;19.70;71.60;;;;;;4996640;28;20126;-65
2023/07/08 02:34:04;;;;;;;8.30;5.13;;;19.60;71.70;;;;;;4996517;28;20054;-65
2023/07/08 02:36:30;;;;;;;10.35;6.32;;;19.60;72.00;;;;;;4996319;28;20051;-65
2023/07/08 02:38:56;;;;;;;8.32;5.03;;;19.60;72.30;;;;;;4996753;28;20454;-65
2023/07/08 02:41:22;;;;;;;9.20;5.40;;;19.60;72.30;;;;;;4996456;28;20101;-65
2023/07/08 02:43:48;;;;;;;9.57;6.07;;;19.60;72.50;;;;;;4996626;28;20027;-65
2023/07/08 02:46:14;;;;;;;9.90;5.70;;;19.50;72.40;;;;;;4996352;28;20401;-67
2023/07/08 02:48:39;;;;;;;11.02;7.32;;;19.50;72.70;;;;;;4996582;28;20026;-67
2023/07/08 02:51:06;;;;;;;9.93;6.28;;;19.50;73.00;;;;;;4996555;28;20040;-65
2023/07/08 02:53:32;;;;;;;8.52;5.90;;;19.50;73.30;;;;;;4996514;28;20022;-66
2023/07/08 02:55:58;;;;;;;13.10;8.13;;;19.40;73.10;;;;;;4996066;28;20130;-66
2023/07/08 02:58:24;;;;;;;9.95;5.70;;;19.40;72.90;;;;;;4996194;28;20102;-65
2023/07/08 03:01:00;;;;;;;10.10;6.30;;;19.30;73.00;;;;;;4996114;28;20424;-67
2023/07/08 03:03:30;;;;;;;10.02;6.60;;;19.30;73.50;;;;;;4996361;28;20037;-66
2023/07/08 03:06:00;;;;;;;10.63;6.60;;;19.20;73.20;;;;;;4996478;28;20042;-65
2023/07/08 03:08:27;;;;;;;11.52;7.32;;;19.20;73.40;;;;;;4996299;28;20440;-67
2023/07/08 03:11:02;;;;;;;10.63;6.43;;;19.20;73.40;;;;;;4995038;28;20041;-64
2023/07/08 03:13:29;;;;;;;10.05;6.22;;;19.20;73.50;;;;;;4996457;28;20092;-66
2023/07/08 03:15:58;;;;;;;13.80;7.80;;;19.10;73.60;;;;;;4995751;28;20057;-67
2023/07/08 03:18:26;;;;;;;14.57;8.15;;;19.10;73.60;;;;;;4995524;28;20456;-66
2023/07/08 03:20:56;;;;;;;15.90;9.40;;;19.10;74.00;;;;;;4995659;28;20030;-65
2023/07/08 03:23:25;;;;;;;17.35;8.75;;;19.00;73.80;;;;;;4996346;28;20073;-68
2023/07/08 03:25:52;;;;;;;12.30;7.35;;;19.00;74.00;;;;;;4995976;28;20030;-67
2023/07/08 03:28:18;;;;;;;15.60;8.10;;;18.90;74.10;;;;;;4995806;28;20042;-68
2023/07/08 03:30:50;;;;;;;12.07;7.00;;;18.90;74.20;;;;;;4995690;28;20080;-65
2023/07/08 03:33:16;;;;;;;16.48;8.60;;;18.90;74.50;;;;;;4996031;28;20023;-65
2023/07/08 03:35:42;;;;;;;18.23;7.47;;;18.80;75.10;;;;;;4995357;28;20056;-65
2023/07/08 03:38:08;;;;;;;12.82;7.43;;;18.80;75.10;;;;;;4995939;28;20101;-65
2023/07/08 03:40:34;;;;;;;14.60;8.35;;;18.70;74.70;;;;;;4995907;28;20026;-64
2023/07/08 03:43:00;;;;;;;11.00;5.72;;;18.70;74.90;;;;;;4995665;28;20077;-65
2023/07/08 03:45:26;;;;;;;13.45;7.60;;;18.70;74.60;;;;;;4995758;28;20026;-65
2023/07/08 03:47:52;;;;;;;11.32;6.05;;;18.60;74.50;;;;;;4994705;28;20030;-67
2023/07/08 03:50:21;;;;;;;13.77;6.15;;;18.70;74.60;;;;;;4995637;28;20030;-66
2023/07/08 03:52:49;;;;;;;12.13;6.20;;;18.70;74.50;;;;;;4995612;28;20029;-67
2023/07/08 03:55:15;;;;;;;13.27;5.65;;;18.70;74.40;;;;;;4995750;28;20027;-67
2023/07/08 03:57:41;;;;;;;13.43;7.03;;;18.70;74.40;;;;;;4995993;28;20023;-68
2023/07/08 04:00:12;;;;;;;13.27;7.15;;;18.70;74.70;;;;;;4995480;28;20022;-68
2023/07/08 04:02:39;;;;;;;12.05;7.55;;;18.80;75.00;;;;;;4995783;28;20022;-67
2023/07/08 04:05:05;;;;;;;13.50;7.22;;;18.80;75.10;;;;;;4995654;28;20030;-68
2023/07/08 04:07:33;;;;;;;14.63;7.20;;;18.80;75.10;;;;;;4995697;28;20084;-67
2023/07/08 04:09:59;;;;;;;11.13;6.63;;;18.90;74.90;;;;;;4995882;28;20038;-64
2023/07/08 04:12:25;;;;;;;9.90;5.20;;;18.90;74.60;;;;;;4995387;28;20022;-65
2023/07/08 04:14:51;;;;;;;10.45;5.28;;;19.00;74.30;;;;;;4995599;28;20516;-67
2023/07/08 04:17:19;;;;;;;14.23;5.93;;;19.10;74.10;;;;;;4995517;28;20027;-66
2023/07/08 04:19:45;;;;;;;12.50;7.07;;;19.20;74.00;;;;;;4995559;28;20022;-66
2023/07/08 04:22:11;;;;;;;12.55;6.80;;;19.30;74.30;;;;;;5010672;28;20023;-64
2023/07/08 04:24:37;;;;;;;11.82;6.53;;;19.40;74.30;;;;;;4995448;28;20019;-65
2023/07/08 04:27:04;;;;;;;12.65;6.60;;;19.50;74.40;;;;;;4995788;28;20113;-65
2023/07/08 04:29:30;;;;;;;9.07;5.85;;;19.70;73.90;;;;;;4995198;28;20034;-67
2023/07/08 04:31:56;;;;;;;11.70;6.63;;;19.90;73.70;;;;;;4997325;28;20022;-66
2023/07/08 04:34:22;;;;;;;12.55;7.03;;;20.00;73.30;;;;;;4998971;28;20376;-65
2023/07/08 04:36:48;;;;;;;13.10;7.70;;;20.30;73.20;;;;;;4998531;28;20379;-67
2023/07/08 04:39:14;;;;;;;12.63;7.13;;;20.40;73.10;;;;;;4998722;28;20028;-67
2023/07/08 04:41:40;;;;;;;15.68;7.93;;;20.50;73.10;;;;;;4998715;28;20094;-66
2023/07/08 04:44:08;;;;;;;13.23;7.00;;;20.70;72.70;;;;;;4998607;28;20033;-66
2023/07/08 04:46:56;;;;;;;11.43;7.28;;;20.80;72.50;;;;;;4998862;28;20030;-67
2023/07/08 04:49:23;;;;;;;16.13;6.53;;;20.90;72.60;;;;;;4998799;28;20032;-67
2023/07/08 04:51:49;;;;;;;12.55;6.07;;;21.10;71.50;;;;;;4998386;28;20360;-66
2023/07/08 04:54:15;;;;;;;12.45;6.18;;;21.30;71.70;;;;;;4998653;28;20101;-65
2023/07/08 04:56:50;;;;;;;12.27;6.32;;;21.80;71.40;;;;;;4998869;28;20106;-68
2023/07/08 04:59:20;;;;;;;10.23;6.00;;;22.60;70.40;;;;;;4998693;28;20105;-67
2023/07/08 05:01:46;;;;;;;11.85;6.53;;;23.40;68.80;;;;;;4998907;28;20026;-66
2023/07/08 05:04:15;;;;;;;8.40;5.07;;;24.20;67.10;;;;;;4998228;28;20030;-67
2023/07/08 05:06:41;;;;;;;7.80;5.22;;;24.80;65.30;;;;;;4998459;28;20026;-66
2023/07/08 05:09:07;;;;;;;10.48;5.60;;;25.50;63.00;;;;;;4998490;28;20149;-65
2023/07/08 05:11:34;;;;;;;10.35;5.10;;;26.10;61.40;;;;;;4998612;28;20464;-65
2023/07/08 05:14:01;;;;;;;8.40;4.70;;;26.80;59.90;;;;;;4998016;28;20030;-72
2023/07/08 05:16:27;;;;;;;8.75;4.32;;;27.50;58.90;;;;;;4998490;28;20030;-69
2023/07/08 05:18:53;;;;;;;9.77;4.82;;;28.40;57.60;;;;;;4998301;28;20019;-73
2023/07/08 05:21:20;;;;;;;9.43;5.22;;;29.40;55.70;;;;;;4997561;28;20026;-68
2023/07/08 05:23:49;;;;;;;11.82;4.55;;;30.30;54.00;;;;;;4998735;28;20018;-73
2023/07/08 05:26:15;;;;;;;8.00;4.63;;;31.40;52.30;;;;;;4998043;28;20513;-68
2023/07/08 05:28:41;;;;;;;7.15;4.22;;;32.50;50.00;;;;;;4999315;28;20077;-73
2023/07/08 05:31:07;;;;;;;8.93;4.72;;;33.40;47.90;;;;;;4998192;28;20105;-72
2023/07/08 05:33:34;;;;;;;7.30;4.65;;;34.30;46.40;;;;;;4997950;28;20034;-68
2023/07/08 05:36:00;;;;;;;9.90;4.70;;;35.20;45.00;;;;;;4997612;28;20125;-74
2023/07/08 05:38:27;;;;;;;11.40;4.88;;;36.00;43.80;;;;;;4997687;28;20022;-72
2023/07/08 05:40:57;;;;;;;8.75;4.72;;;36.90;42.60;;;;;;4997898;28;20085;-73
2023/07/08 05:43:25;;;;;;;6.70;4.30;;;37.70;41.30;;;;;;4997198;28;20030;-62
2023/07/08 05:45:51;;;;;;;7.88;4.18;;;38.40;39.80;;;;;;4997424;28;20085;-65
2023/07/08 05:48:17;;;;;;;9.23;4.70;;;39.10;38.30;;;;;;4997580;28;20069;-64
2023/07/08 05:50:45;;;;;;;6.75;4.40;;;39.80;37.10;;;;;;4997661;28;20409;-68
2023/07/08 05:53:12;;;;;;;7.50;4.43;;;40.40;36.00;;;;;;4997369;28;20408;-68
2023/07/08 05:55:39;;;;;;;7.22;4.32;;;41.00;35.00;;;;;;4997257;28;20054;-69
2023/07/08 05:58:05;;;;;;;5.93;3.95;;;41.70;34.60;;;;;;4996980;28;20026;-68
2023/07/08 06:00:31;;;;;;;7.90;3.95;;;42.00;33.40;;;;;;4997532;28;20026;-68
2023/07/08 06:02:57;;;;;;;6.05;3.95;;;42.30;33.00;;;;;;4997276;28;20023;-68
2023/07/08 06:05:23;;;;;;;5.78;4.00;;;42.80;32.50;;;;;;4997147;28;20053;-68
2023/07/08 06:07:49;;;;;;;7.43;4.30;;;43.40;31.90;;;;;;4997138;28;20035;-66
2023/07/08 06:10:15;;;;;;;7.10;4.32;;;43.90;31.10;;;;;;4997368;28;20447;-64
2023/07/08 06:12:41;;;;;;;5.65;3.97;;;44.10;30.50;;;;;;5012366;28;20034;-66
2023/07/08 06:15:07;;;;;;;5.70;3.70;;;44.40;30.10;;;;;;4996928;28;20030;-66
2023/07/08 06:17:33;;;;;;;7.53;4.28;;;44.70;29.50;;;;;;4996841;28;20076;-67
2023/07/08 06:19:59;;;;;;;8.85;4.25;;;45.00;29.40;;;;;;4997120;28;20400;-66
2023/07/08 06:22:25;;;;;;;6.93;4.30;;;45.30;28.90;;;;;;4996821;28;20425;-63
2023/07/08 06:24:51;;;;;;;7.45;4.57;;;45.50;28.70;;;;;;4997502;28;20054;-64
2023/07/08 06:27:17;;;;;;;7.78;4.22;;;45.70;28.50;;;;;;4997199;28;20318;-67
2023/07/08 06:29:45;;;;;;;6.97;4.05;;;45.90;28.10;;;;;;4996687;28;20026;-67
2023/07/08 06:32:11;;;;;;;6.63;4.43;;;45.90;28.10;;;;;;4996659;28;20057;-68
2023/07/08 06:34:37;;;;;;;7.90;4.38;;;45.90;27.70;;;;;;4996857;28;20030;-64
2023/07/08 06:37:03;;;;;;;7.85;4.45;;;45.80;27.50;;;;;;4996347;28;20054;-68
2023/07/08 06:39:29;;;;;;;6.38;4.55;;;45.70;27.30;;;;;;4997057;28;20038;-66
2023/07/08 06:41:55;;;;;;;8.07;4.63;;;45.40;27.00;;;;;;4996772;28;20082;-67
2023/07/08 06:44:21;;;;;;;6.45;4.35;;;44.80;27.10;;;;;;4996851;28;20022;-64
2023/07/08 06:46:47;;;;;;;7.93;4.30;;;44.40;27.30;;;;;;5011777;28;20038;-67
2023/07/08 06:49:13;;;;;;;9.15;5.07;;;43.90;27.70;;;;;;4996851;28;20026;-67
2023/07/08 06:51:39;;;;;;;8.32;5.15;;;43.00;28.30;;;;;;4996555;28;20041;-66
2023/07/08 06:54:11;;;;;;;8.50;4.50;;;41.90;29.20;;;;;;4995456;28;20045;-69
2023/07/08 06:56:41;;;;;;;7.78;4.57;;;40.40;30.80;;;;;;4996199;28;20510;-67
2023/07/08 06:59:08;;;;;;;9.77;4.43;;;39.00;32.40;;;;;;4996190;28;20029;-63
2023/07/08 07:01:36;;;;;;;7.28;4.32;;;38.00;33.70;;;;;;4996384;28;20070;-68
2023/07/08 07:04:03;;;;;;;7.07;4.47;;;37.10;35.00;;;;;;4996286;28;20467;-63
2023/07/08 07:06:30;;;;;;;8.43;4.57;;;36.30;36.10;;;;;;4996295;28;20034;-63
2023/07/08 07:08:56;;;;;;;7.47;4.72;;;35.80;37.00;;;;;;4996241;28;20437;-63
2023/07/08 07:11:22;;;;;;;7.93;4.60;;;35.30;37.80;;;;;;4996259;28;20065;-64
2023/07/08 07:13:48;;;;;;;7.30;4.60;;;34.90;38.50;;;;;;4996486;28;20030;-64
2023/07/08 07:16:14;;;;;;;7.82;4.78;;;34.40;38.80;;;;;;4995789;28;20360;-67
2023/07/08 07:18:39;;;;;;;9.45;4.85;;;34.20;39.40;;;;;;4996372;28;20023;-68
2023/07/08 07:21:05;;;;;;;7.78;4.40;;;33.90;39.90;;;;;;4995954;28;20022;-63
2023/07/08 07:23:31;;;;;;;6.38;4.43;;;33.80;40.30;;;;;;4995896;28;20022;-67
2023/07/08 07:25:57;;;;;;;7.07;4.47;;;33.60;40.40;;;;;;4995704;28;20042;-67
2023/07/08 07:28:23;;;;;;;8.40;4.63;;;33.50;40.50;;;;;;4995796;28;20101;-63
2023/07/08 07:30:57;;;;;;;10.30;4.85;;;33.30;40.80;;;;;;4995771;28;20038;-68
2023/07/08 07:33:24;;;;;;;7.88;4.60;;;33.20;41.20;;;;;;4996060;28;20129;-64
2023/07/08 07:35:50;;;;;;;7.68;4.50;;;33.20;41.40;;;;;;4995391;28;20121;-65
2023/07/08 07:38:16;;;;;;;7.35;4.38;;;33.10;41.50;;;;;;4995669;28;20102;-68
2023/07/08 07:40:43;;;;;;;7.10;4.65;;;33.00;41.50;;;;;;4995955;28;20109;-67
2023/07/08 07:43:09;;;;;;;7.22;4.30;;;33.00;41.60;;;;;;4995889;28;20026;-68
2023/07/08 07:45:35;;;;;;;8.43;4.50;;;33.00;41.50;;;;;;4995527;28;20026;-64
2023/07/08 07:48:01;;;;;;;6.22;4.03;;;33.00;41.50;;;;;;4995592;28;20018;-64
2023/07/08 07:50:28;;;;;;;6.57;4.25;;;32.90;41.60;;;;;;4995857;28;20105;-68
2023/07/08 07:52:54;;;;;;;7.95;4.32;;;33.00;41.30;;;;;;4995616;28;20053;-68
2023/07/08 07:55:20;;;;;;;7.55;4.25;;;33.00;41.30;;;;;;4995507;28;20355;-68
2023/07/08 07:57:46;;;;;;;7.35;4.53;;;33.00;41.30;;;;;;4995458;28;20518;-64
2023/07/08 08:00:14;;;;;;;6.65;4.68;;;33.00;41.20;;;;;;4995445;28;20030;-67
2023/07/08 08:02:43;;;;;;;7.45;4.30;;;33.00;41.30;;;;;;4995393;28;20050;-64
2023/07/08 08:05:09;;;;;;;6.20;4.45;;;32.90;41.10;;;;;;4996301;28;20069;-68
2023/07/08 08:07:36;;;;;;;7.95;4.65;;;32.80;41.30;;;;;;4999354;28;20061;-68
2023/07/08 08:10:03;;;;;;;8.27;4.68;;;32.60;41.60;;;;;;4999856;28;20058;-68
2023/07/08 08:12:29;;;;;;;7.85;4.65;;;32.60;42.00;;;;;;4999765;28;20037;-63
2023/07/08 08:14:55;;;;;;;7.80;4.63;;;32.60;42.20;;;;;;4999162;28;20033;-64
2023/07/08 08:17:22;;;;;;;8.48;4.55;;;32.60;42.20;;;;;;4999089;28;20447;-68
2023/07/08 08:19:48;;;;;;;8.23;5.03;;;32.60;42.10;;;;;;4999403;28;20034;-63
2023/07/08 08:22:15;;;;;;;7.80;4.80;;;32.60;42.00;;;;;;4999123;28;20042;-64
2023/07/08 08:24:41;;;;;;;8.45;4.65;;;32.60;42.00;;;;;;4999203;28;20034;-64
2023/07/08 08:27:07;;;;;;;8.90;4.90;;;32.60;41.90;;;;;;4998971;28;20022;-64
2023/07/08 08:29:33;;;;;;;8.27;4.68;;;32.60;41.80;;;;;;4999147;28;20113;-68
2023/07/08 08:31:58;;;;;;;8.82;5.35;;;32.60;41.90;;;;;;4998824;28;20113;-64
2023/07/08 08:34:24;;;;;;;7.53;4.93;;;32.60;41.80;;;;;;4998990;28;20132;-68
2023/07/08 08:36:50;;;;;;;7.40;4.50;;;32.60;41.90;;;;;;4998560;28;20042;-64
2023/07/08 08:39:16;;;;;;;6.88;4.43;;;32.60;41.90;;;;;;4999266;28;20407;-67
2023/07/08 08:41:43;;;;;;;9.13;5.15;;;32.60;42.20;;;;;;4998999;28;20069;-68
2023/07/08 08:44:15;;;;;;;7.82;4.65;;;32.60;42.10;;;;;;4998611;28;20042;-67
2023/07/08 08:46:46;;;;;;;7.88;4.82;;;32.40;42.30;;;;;;4998924;28;20440;-68
2023/07/08 08:49:30;;;;;;;7.00;4.38;;;32.30;42.60;;;;;;4998887;28;20027;-63
2023/07/08 08:51:58;;;;;;;7.18;4.50;;;32.30;42.80;;;;;;4999056;28;20026;-64
2023/07/08 08:54:25;;;;;;;7.68;4.28;;;32.40;42.90;;;;;;4998428;28;20030;-64
2023/07/08 08:57:25;;;;;;;7.22;4.72;;;32.50;42.90;;;;;;4998392;28;20050;-68
2023/07/08 08:59:56;;;;;;;7.45;4.72;;;32.60;42.50;;;;;;4998875;28;20037;-63
2023/07/08 09:02:36;;;;;;;7.88;4.90;;;32.60;42.70;;;;;;4998592;28;20036;-67
2023/07/08 09:05:08;;;;;;;11.23;4.75;;;32.60;42.90;;;;;;4998516;28;20019;-68
2023/07/08 09:08:12;;;;;;;7.97;4.82;;;32.50;43.00;;;;;;4998227;28;20034;-64
2023/07/08 09:10:47;;;;;;;7.97;4.80;;;32.60;43.10;;;;;;4998761;28;20030;-67
2023/07/08 09:13:28;;;;;;;8.95;4.55;;;32.70;43.00;;;;;;4998734;28;20026;-64
2023/07/08 09:16:06;;;;;;;8.55;4.93;;;32.90;42.70;;;;;;4998046;28;20030;-63
2023/07/08 09:19:11;;;;;;;8.20;4.93;;;33.00;42.20;;;;;;4998000;28;20427;-63
2023/07/08 09:22:10;;;;;;;10.13;4.85;;;32.90;42.10;;;;;;4997929;28;20033;-68
2023/07/08 09:24:56;;;;;;;10.50;5.00;;;33.00;42.30;;;;;;4997529;28;20054;-68
2023/07/08 09:27:22;;;;;;;8.38;5.00;;;33.10;42.40;;;;;;4997887;28;20113;-68
2023/07/08 09:29:48;;;;;;;8.48;5.18;;;33.20;42.50;;;;;;4997837;28;20041;-64
2023/07/08 09:32:18;;;;;;;9.85;5.60;;;33.30;42.20;;;;;;4998372;28;20325;-68
2023/07/08 09:34:51;;;;;;;7.63;5.18;;;33.20;42.20;;;;;;4997492;28;20030;-64
2023/07/08 09:37:23;;;;;;;7.85;4.88;;;33.30;42.30;;;;;;4997076;28;20030;-68
2023/07/08 09:39:49;;;;;;;8.68;5.22;;;33.30;42.40;;;;;;4998191;28;20045;-64
2023/07/08 09:42:16;;;;;;;8.90;5.47;;;33.20;42.00;;;;;;4996764;28;20035;-64
2023/07/08 09:44:45;;;;;;;8.07;5.25;;;33.00;42.20;;;;;;4997979;28;20037;-68
2023/07/08 09:47:30;;;;;;;8.95;4.97;;;32.90;42.80;;;;;;4997521;28;20041;-69
2023/07/08 09:49:58;;;;;;;7.60;4.68;;;32.80;43.20;;;;;;4997494;28;20033;-69
2023/07/08 09:52:24;;;;;;;7.43;4.55;;;32.90;43.20;;;;;;4997446;28;20053;-65
2023/07/08 09:54:50;;;;;;;6.90;4.05;;;32.90;42.80;;;;;;4997336;28;20041;-63
2023/07/08 09:57:31;;;;;;;6.53;4.25;;;33.00;42.80;;;;;;4997258;28;20030;-63
2023/07/08 10:00:02;;;;;;;7.80;4.00;;;33.10;42.50;;;;;;4997610;28;20104;-64
2023/07/08 10:02:39;;;;;;;6.70;4.00;;;33.20;42.50;;;;;;4998034;28;20225;-68
2023/07/08 10:05:27;;;;;;;6.38;4.20;;;33.30;42.20;;;;;;4997409;28;20037;-64
2023/07/08 10:07:57;;;;;;;6.25;4.07;;;33.30;41.80;;;;;;4997375;28;20108;-64
2023/07/08 10:10:31;;;;;;;6.10;4.20;;;33.30;41.50;;;;;;4997590;28;20030;-68
2023/07/08 10:13:01;;;;;;;6.78;4.05;;;33.20;41.40;;;;;;4997509;28;20045;-64
2023/07/08 10:15:56;;;;;;;5.70;3.83;;;33.20;41.10;;;;;;4995948;28;20145;-64
2023/07/08 10:18:29;;;;;;;6.90;4.10;;;33.10;40.40;;;;;;4996883;28;20062;-64
2023/07/08 10:21:14;;;;;;;7.50;4.30;;;32.90;40.50;;;;;;4997476;28;20069;-68
2023/07/08 10:23:43;;;;;;;7.63;4.45;;;32.90;40.90;;;;;;4997390;28;20034;-66
2023/07/08 10:26:27;;;;;;;8.02;4.57;;;32.90;40.80;;;;;;4996924;28;20038;-67
2023/07/08 10:29:09;;;;;;;7.38;4.03;;;32.90;40.30;;;;;;4997253;28;20057;-68
2023/07/08 10:31:46;;;;;;;8.35;4.82;;;32.80;40.40;;;;;;4996652;28;20078;-69
2023/07/08 10:34:35;;;;;;;6.35;4.28;;;32.60;39.80;;;;;;4996845;28;20023;-64
2023/07/08 10:37:10;;;;;;;7.93;4.80;;;32.40;40.20;;;;;;4996359;28;20057;-64
2023/07/08 10:40:12;;;;;;;7.85;4.38;;;32.30;40.20;;;;;;4997080;28;20022;-64
2023/07/08 10:42:53;;;;;;;8.63;4.80;;;32.20;40.30;;;;;;4997052;28;20077;-68
2023/07/08 10:45:38;;;;;;;6.88;4.60;;;32.10;40.60;;;;;;4996481;28;20030;-67
2023/07/08 10:48:29;;;;;;;6.85;4.47;;;31.90;41.00;;;;;;4996335;28;20034;-66
2023/07/08 10:51:09;;;;;;;7.95;4.63;;;31.80;41.00;;;;;;4996651;28;20105;-67
2023/07/08 10:53:47;;;;;;;6.97;4.40;;;31.60;40.80;;;;;;4996843;28;20351;-63
2023/07/08 10:56:55;;;;;;;7.32;4.53;;;31.50;41.10;;;;;;4995146;28;20337;-67
2023/07/08 10:59:36;;;;;;;7.72;4.25;;;31.50;41.00;;;;;;4990919;28;20054;-63
2023/07/08 11:02:17;;;;;;;8.38;4.72;;;31.50;41.10;;;;;;4996413;28;20022;-68
2023/07/08 11:04:55;;;;;;;8.05;4.40;;;31.50;41.10;;;;;;4996374;28;20096;-65
2023/07/08 11:07:41;;;;;;;6.70;4.05;;;31.50;41.00;;;;;;4996398;28;20029;-68
2023/07/08 11:10:22;;;;;;;8.82;4.63;;;31.50;41.30;;;;;;4996021;28;20121;-64
2023/07/08 11:12:56;;;;;;;7.10;4.53;;;31.50;41.10;;;;;;4996532;28;20087;-64
2023/07/08 11:15:43;;;;;;;8.40;4.47;;;31.50;41.10;;;;;;4994740;28;20038;-64
2023/07/08 11:18:30;;;;;;;7.18;4.57;;;31.50;41.50;;;;;;4996521;28;20102;-64
2023/07/08 11:21:11;;;;;;;6.75;4.43;;;31.50;41.70;;;;;;4995870;28;20022;-68
2023/07/08 11:24:22;;;;;;;6.57;4.20;;;31.60;41.80;;;;;;4995801;28;20061;-63
2023/07/08 11:26:53;;;;;;;8.77;4.75;;;31.80;41.90;;;;;;4955445;29;20031;-64
2023/07/08 11:29:36;;;;;;;6.85;4.38;;;31.80;41.60;;;;;;4955741;29;20078;-68
2023/07/08 11:32:05;;;;;;;7.88;4.75;;;31.80;41.90;;;;;;4956125;29;20118;-68
2023/07/08 11:34:33;;;;;;;7.60;4.15;;;31.90;42.10;;;;;;4955489;29;20027;-63
2023/07/08 11:37:00;;;;;;;8.90;4.97;;;31.90;42.30;;;;;;4955029;29;20535;-64
2023/07/08 11:39:41;;;;;;;6.93;4.80;;;31.90;42.30;;;;;;4954925;29;20208;-64
2023/07/08 11:42:24;;;;;;;8.38;4.65;;;31.70;42.20;;;;;;4940772;29;20397;-69
2023/07/08 11:44:56;;;;;;;7.20;4.60;;;31.60;42.70;;;;;;4955373;29;20139;-63
2023/07/08 11:47:38;;;;;;;7.13;4.30;;;31.60;43.10;;;;;;4955158;29;20035;-68
2023/07/08 11:50:24;;;;;;;6.43;4.40;;;31.50;43.20;;;;;;4955218;29;20039;-63
2023/07/08 11:53:06;;;;;;;9.20;5.00;;;31.50;43.20;;;;;;4955669;29;20031;-68
2023/07/08 11:55:40;;;;;;;7.32;5.00;;;31.40;43.30;;;;;;4955217;29;20028;-64
2023/07/08 11:58:08;;;;;;;7.50;4.70;;;31.30;43.60;;;;;;4938945;29;20454;-64
2023/07/08 12:00:35;;;;;;;7.25;4.53;;;31.20;43.80;;;;;;4954982;29;20028;-68
2023/07/08 12:03:22;;;;;;;8.07;4.40;;;31.10;43.80;;;;;;4959633;28;20074;-63
2023/07/08 12:05:48;;;;;;;6.50;4.50;;;31.20;43.70;;;;;;4995562;28;20467;-64
2023/07/08 12:08:17;;;;;;;7.30;4.70;;;31.10;43.50;;;;;;4995428;28;20022;-63
2023/07/08 12:10:51;;;;;;;6.63;3.88;;;31.30;43.40;;;;;;4995442;28;20437;-66
2023/07/08 12:13:22;;;;;;;8.35;4.28;;;31.30;43.50;;;;;;4995946;28;20430;-64
2023/07/08 12:15:48;;;;;;;5.82;4.20;;;31.30;43.10;;;;;;4995405;28;20451;-63
2023/07/08 12:18:19;;;;;;;8.77;5.00;;;31.30;43.10;;;;;;4995415;28;20109;-63
2023/07/08 12:20:52;;;;;;;7.55;4.88;;;31.30;42.80;;;;;;4995682;28;20027;-67
2023/07/08 12:23:20;;;;;;;;;;;31.30;42.90;;;;;;4996313;28;20050;-68
2023/07/08 12:25:48;;;;;;;8.63;4.50;;;31.30;43.10;;;;;;4995249;28;19906;-63
2023/07/08 12:28:15;;;;;;;7.38;4.50;;;31.30;43.10;;;;;;4995268;28;20076;-64
2023/07/08 12:30:43;;;;;;;7.75;4.60;;;31.30;43.20;;;;;;4995517;28;20495;-63
2023/07/08 12:33:31;;;;;;;8.30;4.72;;;31.30;43.30;;;;;;4995241;28;20080;-68
2023/07/08 12:35:59;;;;;;;7.32;4.80;;;31.20;43.30;;;;;;4993380;28;20078;-68
2023/07/08 12:38:33;;;;;;;7.78;4.70;;;31.20;43.40;;;;;;4995223;28;20046;-68
2023/07/08 12:41:20;;;;;;;7.47;4.55;;;31.20;43.20;;;;;;4995474;28;20033;-63
2023/07/08 12:43:47;;;;;;;7.63;4.80;;;31.20;43.10;;;;;;4995754;28;20049;-69
2023/07/08 12:46:16;;;;;;;8.02;4.78;;;31.20;42.90;;;;;;4995322;28;20034;-63
2023/07/08 12:48:42;;;;;;;7.18;4.80;;;31.10;42.90;;;;;;4995344;28;20022;-68
2023/07/08 12:51:14;;;;;;;9.00;4.70;;;31.10;42.80;;;;;;4995093;28;20053;-68
2023/07/08 12:53:40;;;;;;;7.53;5.00;;;31.00;42.70;;;;;;4998102;28;20452;-68
2023/07/08 12:56:07;;;;;;;8.35;4.65;;;31.00;43.00;;;;;;4998417;28;20053;-63
2023/07/08 12:58:39;;;;;;;8.48;4.97;;;31.00;43.50;;;;;;4998761;28;20030;-63
2023/07/08 13:01:06;;;;;;;7.47;4.70;;;31.00;43.60;;;;;;4998782;28;20030;-64
2023/07/08 13:03:40;;;;;;;7.78;4.47;;;31.00;43.50;;;;;;4998363;28;20038;-64